地図

経路データ

SID SEASON NUMBER BASIN SUBBASIN NAME ISO_TIME NATURE LAT LON WMO_WIND WMO_PRES WMO_AGENCY TRACK_TYPE DIST2LAND LANDFALL IFLAG USA_AGENCY USA_ATCF_ID USA_LAT USA_LON USA_RECORD USA_STATUS USA_WIND USA_PRES USA_SSHS USA_R34_NE USA_R34_SE USA_R34_SW USA_R34_NW USA_R50_NE USA_R50_SE USA_R50_SW USA_R50_NW USA_R64_NE USA_R64_SE USA_R64_SW USA_R64_NW USA_POCI USA_ROCI USA_RMW USA_EYE TOKYO_LAT TOKYO_LON TOKYO_GRADE TOKYO_WIND TOKYO_PRES TOKYO_R50_DIR TOKYO_R50_LONG TOKYO_R50_SHORT TOKYO_R30_DIR TOKYO_R30_LONG TOKYO_R30_SHORT TOKYO_LAND CMA_LAT CMA_LON CMA_CAT CMA_WIND CMA_PRES HKO_LAT HKO_LON HKO_CAT HKO_WIND HKO_PRES NEWDELHI_LAT NEWDELHI_LON NEWDELHI_GRADE NEWDELHI_WIND NEWDELHI_PRES NEWDELHI_CI NEWDELHI_DP NEWDELHI_POCI REUNION_LAT REUNION_LON REUNION_TYPE REUNION_WIND REUNION_PRES REUNION_TNUM REUNION_CI REUNION_RMW REUNION_R34_NE REUNION_R34_SE REUNION_R34_SW REUNION_R34_NW REUNION_R50_NE REUNION_R50_SE REUNION_R50_SW REUNION_R50_NW REUNION_R64_NE REUNION_R64_SE REUNION_R64_SW REUNION_R64_NW BOM_LAT BOM_LON BOM_TYPE BOM_WIND BOM_PRES BOM_TNUM BOM_CI BOM_RMW BOM_R34_NE BOM_R34_SE BOM_R34_SW BOM_R34_NW BOM_R50_NE BOM_R50_SE BOM_R50_SW BOM_R50_NW BOM_R64_NE BOM_R64_SE BOM_R64_SW BOM_R64_NW BOM_ROCI BOM_POCI BOM_EYE BOM_POS_METHOD BOM_PRES_METHOD NADI_LAT NADI_LON NADI_CAT NADI_WIND NADI_PRES WELLINGTON_LAT WELLINGTON_LON WELLINGTON_WIND WELLINGTON_PRES DS824_LAT DS824_LON DS824_STAGE DS824_WIND DS824_PRES TD9636_LAT TD9636_LON TD9636_STAGE TD9636_WIND TD9636_PRES TD9635_LAT TD9635_LON TD9635_WIND TD9635_PRES TD9635_ROCI NEUMANN_LAT NEUMANN_LON NEUMANN_CLASS NEUMANN_WIND NEUMANN_PRES MLC_LAT MLC_LON MLC_CLASS MLC_WIND MLC_PRES USA_GUST BOM_GUST BOM_GUST_PER REUNION_GUST REUNION_GUST_PER USA_SEAHGT USA_SEARAD_NE USA_SEARAD_SE USA_SEARAD_SW USA_SEARAD_NW STORM_SPEED STORM_DIR
1983141N07269 1983 24 EP MM ADOLPH 1983-05-21 00:00:00 TS 7.10000 -91.5000 25 hurdat_epa main 711 711 O_________O___ hurdat_epa EP011983 7.10000 -91.5000 TD 25 -1 7.10000 -91.5000 1 25 12 284
1983141N07269 1983 24 EP MM ADOLPH 1983-05-21 03:00:00 TS 7.24799 -92.1087 main 749 738 P_________P___ EP011983 7.23765 -92.1050 TD 25 -1 7.27898 -92.1199 1 26 12 285
1983141N07269 1983 24 EP MM ADOLPH 1983-05-21 06:00:00 TS 7.41400 -92.7055 25 hurdat_epa main 743 732 O_________P___ hurdat_epa EP011983 7.40000 -92.7000 TD 25 -1 7.45602 -92.7220 1 27 12 287
1983141N07269 1983 24 EP MM ADOLPH 1983-05-21 09:00:00 TS 7.60747 -93.2764 main 738 731 P_________P___ EP011983 7.59996 -93.2725 TD 27 -1 7.63001 -93.2882 1 28 12 290
1983141N07269 1983 24 EP MM ADOLPH 1983-05-21 12:00:00 TS 7.80000 -93.8000 30 hurdat_epa main 735 732 O_________O___ hurdat_epa EP011983 7.80000 -93.8000 TD 30 -1 7.80000 -93.8000 1 30 10 290
1983141N07269 1983 24 EP MM ADOLPH 1983-05-21 15:00:00 TS 7.95926 -94.2664 main 737 737 P_________P___ EP011983 7.95742 -94.2726 TD 35 0 7.96477 -94.2480 1 33 9 289
1983141N07269 1983 24 EP MM ADOLPH 1983-05-21 18:00:00 TS 8.10544 -94.6894 40 hurdat_epa main 748 743 O_________P___ hurdat_epa EP011983 8.10000 -94.7000 TS 40 0 8.12175 -94.6577 1 37 9 290
1983141N07269 1983 24 EP MM ADOLPH 1983-05-21 21:00:00 TS 8.25435 -95.0741 main 751 751 P_________P___ EP011983 8.24983 -95.0776 TS 42 0 8.26789 -95.0636 1 41 9 290
1983141N07269 1983 24 EP MM ADOLPH 1983-05-22 00:00:00 TS 8.40000 -95.5000 45 hurdat_epa main 764 764 O_________O___ hurdat_epa EP011983 8.40000 -95.5000 TS 45 0 8.40000 -95.5000 2 45 10 287
1983141N07269 1983 24 EP MM ADOLPH 1983-05-22 03:00:00 TS 8.55043 -96.0723 main 783 772 P_________P___ EP011983 8.56510 -96.0849 TS 45 0 8.50643 -96.0345 2 45 12 283
1983141N07269 1983 24 EP MM ADOLPH 1983-05-22 06:00:00 TS 8.67507 -96.6751 45 hurdat_epa main 772 772 O_________P___ hurdat_epa EP011983 8.70000 -96.7000 TS 45 0 8.60028 -96.6002 2 45 11 279
1983141N07269 1983 24 EP MM ADOLPH 1983-05-22 09:00:00 TS 8.73589 -97.2028 main 775 765 P_________P___ EP011983 8.74987 -97.2151 TS 45 0 8.69394 -97.1658 2 45 10 277
1983141N07269 1983 24 EP MM ADOLPH 1983-05-22 12:00:00 TS 8.80000 -97.7000 45 hurdat_epa main 770 763 O_________O___ hurdat_epa EP011983 8.80000 -97.7000 TS 45 0 8.80000 -97.7000 2 45 10 281
1983141N07269 1983 24 EP MM ADOLPH 1983-05-22 15:00:00 TS 8.93508 -98.2081 main 770 759 P_________P___ EP011983 8.93501 -98.2225 TS 47 0 8.93528 -98.1650 2 47 10 287
1983141N07269 1983 24 EP MM ADOLPH 1983-05-22 18:00:00 TS 9.09614 -98.6738 50 hurdat_epa main 762 755 O_________P___ hurdat_epa EP011983 9.10000 -98.7000 TS 50 0 9.08457 -98.5950 2 50 9 290
1983141N07269 1983 24 EP MM ADOLPH 1983-05-22 21:00:00 TS 9.24217 -99.0495 main 762 753 P_________P___ EP011983 9.24237 -99.0651 TS 52 0 9.24158 -99.0025 2 52 8 293
1983141N07269 1983 24 EP MM ADOLPH 1983-05-23 00:00:00 TS 9.40000 -99.4000 55 hurdat_epa main 757 745 O_________O___ hurdat_epa EP011983 9.40000 -99.4000 TS 55 0 9.40000 -99.4000 2 55 8 295
1983141N07269 1983 24 EP MM ADOLPH 1983-05-23 03:00:00 TS 9.59030 -99.7961 main 748 741 P_________P___ EP011983 9.60748 -99.7925 TS 55 0 9.53876 -99.8070 2 55 9 295
1983141N07269 1983 24 EP MM ADOLPH 1983-05-23 06:00:00 TS 9.76984 -100.202 55 hurdat_epa main 741 741 O_________P___ hurdat_epa EP011983 9.80000 -100.200 TS 55 0 9.67935 -100.207 2 55 8 290
1983141N07269 1983 24 EP MM ADOLPH 1983-05-23 09:00:00 TS 9.88253 -100.601 main 747 747 P_________P___ EP011983 9.89995 -100.600 TS 55 0 9.83027 -100.604 2 55 8 286
1983141N07269 1983 24 EP MM ADOLPH 1983-05-23 12:00:00 TS 10.0000 -101.000 55 hurdat_epa main 751 742 O_________O___ hurdat_epa EP011983 10.0000 -101.000 TS 55 0 10.0000 -101.000 2 55 8 291
1983141N07269 1983 24 EP MM ADOLPH 1983-05-23 15:00:00 TS 10.1875 -101.400 main 747 737 P_________P___ EP011983 10.1850 -101.400 TS 60 0 10.1951 -101.400 2 60 9 297
1983141N07269 1983 24 EP MM ADOLPH 1983-05-23 18:00:00 TS 10.4000 -101.800 65 hurdat_epa main 740 730 O_________O___ hurdat_epa EP011983 10.4000 -101.800 HU 65 1 10.4000 -101.800 3 65 9 296
1983141N07269 1983 24 EP MM ADOLPH 1983-05-23 21:00:00 TS 10.5863 -102.213 main 734 726 P_________P___ EP011983 10.5850 -102.215 HU 72 1 10.5902 -102.207 3 72 9 297
1983141N07269 1983 24 EP MM ADOLPH 1983-05-24 00:00:00 TS 10.8000 -102.600 80 hurdat_epa main 731 715 O_________O___ hurdat_epa EP011983 10.8000 -102.600 HU 80 1 10.8000 -102.600 4 80 9 305
1983141N07269 1983 24 EP MM ADOLPH 1983-05-24 03:00:00 TS 11.0805 -102.921 main 715 698 P_________P___ EP011983 11.0849 -102.908 HU 87 2 11.0675 -102.961 4 83 9 314
1983141N07269 1983 24 EP MM ADOLPH 1983-05-24 06:00:00 TS 11.3931 -103.224 95 hurdat_epa main 698 678 O_________P___ hurdat_epa EP011983 11.4000 -103.200 HU 95 2 11.3726 -103.294 4 87 9 315
1983141N07269 1983 24 EP MM ADOLPH 1983-05-24 09:00:00 TS 11.7035 -103.564 main 682 660 P_________P___ EP011983 11.7075 -103.550 HU 95 2 11.6914 -103.605 4 91 9 313
1983141N07269 1983 24 EP MM ADOLPH 1983-05-24 12:00:00 TS 12.0000 -103.900 95 hurdat_epa main 665 655 O_________O___ hurdat_epa EP011983 12.0000 -103.900 HU 95 2 12.0000 -103.900 4 95 8 311
1983141N07269 1983 24 EP MM ADOLPH 1983-05-24 15:00:00 TS 12.2602 -104.211 main 651 643 P_________P___ EP011983 12.2575 -104.215 HU 95 2 12.2683 -104.198 4 95 8 311
1983141N07269 1983 24 EP MM ADOLPH 1983-05-24 18:00:00 TS 12.5056 -104.495 95 hurdat_epa main 648 634 O_________P___ hurdat_epa EP011983 12.5000 -104.500 HU 95 2 12.5224 -104.480 4 95 7 313
1983141N07269 1983 24 EP MM ADOLPH 1983-05-24 21:00:00 TS 12.7594 -104.761 main 627 613 P_________P___ EP011983 12.7575 -104.765 HU 95 2 12.7652 -104.748 4 95 7 315
1983141N07269 1983 24 EP MM ADOLPH 1983-05-25 00:00:00 TS 13.0000 -105.000 95 hurdat_epa main 613 599 O_________O___ hurdat_epa EP011983 13.0000 -105.000 HU 95 2 13.0000 -105.000 4 95 6 315
1983141N07269 1983 24 EP MM ADOLPH 1983-05-25 03:00:00 TS 13.2080 -105.218 main 599 584 P_________P___ EP011983 13.1999 -105.200 HU 92 2 13.2322 -105.272 4 92 6 315
1983141N07269 1983 24 EP MM ADOLPH 1983-05-25 06:00:00 TS 13.4144 -105.431 90 hurdat_epa main 584 571 O_________P___ hurdat_epa EP011983 13.4000 -105.400 HU 90 2 13.4575 -105.525 4 90 6 314
1983141N07269 1983 24 EP MM ADOLPH 1983-05-25 09:00:00 TS 13.6517 -105.684 main 566 555 P_________P___ EP011983 13.6426 -105.665 HU 87 2 13.6791 -105.741 4 87 7 317
1983141N07269 1983 24 EP MM ADOLPH 1983-05-25 12:00:00 TS 13.9000 -105.900 85 hurdat_epa main 555 540 O_________O___ hurdat_epa EP011983 13.9000 -105.900 HU 85 2 13.9000 -105.900 4 85 6 325
1983141N07269 1983 24 EP MM ADOLPH 1983-05-25 15:00:00 TS 14.1483 -106.036 main 540 517 P_________P___ EP011983 14.1575 -106.045 HU 82 1 14.1208 -106.007 4 80 5 339
1983141N07269 1983 24 EP MM ADOLPH 1983-05-25 18:00:00 TS 14.3856 -106.089 80 hurdat_epa main 517 498 O_________P___ hurdat_epa EP011983 14.4000 -106.100 HU 80 1 14.3423 -106.055 4 75 5 355
1983141N07269 1983 24 EP MM ADOLPH 1983-05-25 21:00:00 TS 14.5975 -106.073 main 498 473 P_________P___ EP011983 14.6075 -106.080 HU 72 1 14.5677 -106.051 4 70 4 12
1983141N07269 1983 24 EP MM ADOLPH 1983-05-26 00:00:00 TS 14.8000 -106.000 65 hurdat_epa main 473 449 O_________O___ hurdat_epa EP011983 14.8000 -106.000 HU 65 1 14.8000 -106.000 4 65 4 21
1983141N07269 1983 24 EP MM ADOLPH 1983-05-26 03:00:00 TS 14.9934 -105.914 main 449 424 P_________P___ EP011983 14.9850 -105.915 HU 62 0 15.0185 -105.910 4 63 5 25
1983141N07269 1983 24 EP MM ADOLPH 1983-05-26 06:00:00 TS 15.2119 -105.795 60 hurdat_epa main 424 384 O_________P___ hurdat_epa EP011983 15.2000 -105.800 TS 60 0 15.2476 -105.780 4 62 6 28
1983141N07269 1983 24 EP MM ADOLPH 1983-05-26 09:00:00 TS 15.4839 -105.641 main 384 351 P_________P___ EP011983 15.4775 -105.643 TS 60 0 15.5029 -105.635 4 61 7 26
1983141N07269 1983 24 EP MM ADOLPH 1983-05-26 12:00:00 TS 15.8000 -105.500 60 hurdat_epa main 351 318 O_________O___ hurdat_epa EP011983 15.8000 -105.500 TS 60 0 15.8000 -105.500 2 60 7 17
1983141N07269 1983 24 EP MM ADOLPH 1983-05-26 15:00:00 TS 16.1328 -105.431 main 318 285 P_________P___ EP011983 16.1275 -105.442 TS 57 0 16.1488 -105.399 2 57 7 9
1983141N07269 1983 24 EP MM ADOLPH 1983-05-26 18:00:00 TS 16.5100 -105.378 55 hurdat_epa main 285 246 O_________P___ hurdat_epa EP011983 16.5000 -105.400 TS 55 0 16.5400 -105.313 2 55 8 10
1983141N07269 1983 24 EP MM ADOLPH 1983-05-26 21:00:00 TS 16.9472 -105.286 main 246 202 P_________P___ EP011983 16.9425 -105.300 TS 52 0 16.9613 -105.245 2 52 9 11
1983141N07269 1983 24 EP MM ADOLPH 1983-05-27 00:00:00 TS 17.4000 -105.200 50 hurdat_epa main 202 158 O_________O___ hurdat_epa EP011983 17.4000 -105.200 TS 50 0 17.4000 -105.200 2 50 9 10
1983141N07269 1983 24 EP MM ADOLPH 1983-05-27 03:00:00 TS 17.8012 -105.136 main 158 116 P_________P___ EP011983 17.7925 -105.128 TS 47 0 17.8275 -105.162 2 47 8 6
1983141N07269 1983 24 EP MM ADOLPH 1983-05-27 06:00:00 TS 18.2175 -105.112 45 hurdat_epa main 116 64 O_________P___ hurdat_epa EP011983 18.2000 -105.100 TS 45 0 18.2700 -105.148 2 45 9 0
1983141N07269 1983 24 EP MM ADOLPH 1983-05-27 09:00:00 TS 18.6956 -105.141 main 64 30 P_________P___ EP011983 18.6850 -105.135 TS 42 0 18.7275 -105.159 2 42 10 355
1983141N07269 1983 24 EP MM ADOLPH 1983-05-27 12:00:00 TS 19.2000 -105.200 40 hurdat_epa main 30 0 O_________O___ hurdat_epa EP011983 19.2000 -105.200 TS 40 0 19.2000 -105.200 2 40 10 354
1983141N07269 1983 24 EP MM ADOLPH 1983-05-27 15:00:00 TS 19.6938 -105.245 main 0 0 P_________P___ EP011983 19.7000 -105.235 TS 37 0 19.6753 -105.273 2 38 10 354
1983141N07269 1983 24 EP MM ADOLPH 1983-05-27 18:00:00 TS 20.1915 -105.318 35 hurdat_epa main 0 0 O_________P___ hurdat_epa EP011983 20.2000 -105.300 TS 35 0 20.1660 -105.372 2 37 10 349
1983141N07269 1983 24 EP MM ADOLPH 1983-05-27 21:00:00 TS 20.6878 -105.453 main 11 0 P_________P___ EP011983 20.6925 -105.442 TS 35 0 20.6736 -105.486 2 36 10 345
1983141N07269 1983 24 EP MM ADOLPH 1983-05-28 00:00:00 TS 21.2000 -105.600 35 hurdat_epa main 38 23 O_________O___ hurdat_epa EP011983 21.2000 -105.600 TS 35 0 21.2000 -105.600 2 35 11 347
1983141N07269 1983 24 EP MM ADOLPH 1983-05-28 03:00:00 TS 21.7425 -105.708 main 23 10 P_________P___ EP011983 21.7425 -105.708 TS 35 0 21.7449 -105.703 2 35 11 350
1983141N07269 1983 24 EP MM ADOLPH 1983-05-28 06:00:00 TS 22.3000 -105.800 35 hurdat_epa main 10 0 O_________O___ hurdat_epa EP011983 22.3000 -105.800 TS 35 0 22.3000 -105.800 2 35 11 351
1983141N07269 1983 24 EP MM ADOLPH 1983-05-28 09:00:00 TS 22.8525 -105.897 main 0 0 P_____________ EP011983 22.8525 -105.897 TS 32 -1 2 11 350
1983141N07269 1983 24 EP MM ADOLPH 1983-05-28 12:00:00 ET 23.4000 -106.000 30 hurdat_epa main 0 O_____________ hurdat_epa EP011983 23.4000 -106.000 ET 30 -4 11 350

IBTrACS Databaseについて

本データベースは、米国NOAAが公開する1842年以降の世界の熱帯低気圧のベストトラックデータアーカイブInternational Best Track Archive for Climate Stewardship (IBTrACS)を、ウェブで閲覧しやすい形式に変換したものです。

最終更新日:2021-11-26